Time;durP1;ratioP1;P1;durP2;ratioP2;P2;SDS_P1;SDS_P2;PMS_P1;PMS_P2;Temp;Humidity;BMP_temperature;BMP_pressure;BME280_temperature;BME280_humidity;BME280_pressure;Samples;Min_cycle;Max_cycle;Signal;HPM_P1;HPM_P2
2020/12/05 00:01:30;;;;;;;31.05;16.55;;;;;;;8.19;80.26;101751.48;1758990;80;25890;-57
2020/12/05 00:03:58;;;;;;;30.68;17.20;;;;;;;8.19;80.12;101755.01;1766253;80;25726;-57
2020/12/05 00:06:26;;;;;;;36.95;16.05;;;;;;;8.20;80.15;101755.89;1763476;79;25446;-56
2020/12/05 00:08:54;;;;;;;41.15;17.50;;;;;;;8.18;80.04;101764.50;1776219;80;25729;-56
2020/12/05 00:11:29;;;;;;;37.50;17.85;;;;;;;8.14;80.10;101766.02;1764386;79;27535;-56
2020/12/05 00:13:58;;;;;;;35.80;17.60;;;;;;;8.11;80.20;101764.02;1758827;80;25453;-57
2020/12/05 00:16:26;;;;;;;31.52;18.32;;;;;;;8.08;80.34;101759.71;1767275;80;25816;-57
2020/12/05 00:18:54;;;;;;;32.28;16.57;;;;;;;8.09;80.33;101765.45;1783523;78;25717;-57
2020/12/05 00:21:24;;;;;;;37.73;17.90;;;;;;;8.09;80.14;101762.78;1795531;78;26093;-57
2020/12/05 00:23:52;;;;;;;33.78;17.90;;;;;;;8.10;80.04;101763.62;1786850;79;27526;-57
2020/12/05 00:26:22;;;;;;;33.42;16.95;;;;;;;8.08;80.10;101758.83;1778504;79;26095;-57
2020/12/05 00:28:50;;;;;;;33.35;17.12;;;;;;;8.07;80.11;101771.38;1778740;79;25706;-56
2020/12/05 00:31:20;;;;;;;36.63;18.00;;;;;;;8.07;80.12;101766.52;1769743;79;26309;-57
2020/12/05 00:33:50;;;;;;;32.17;16.45;;;;;;;8.04;79.91;101771.56;1772493;78;25647;-57
2020/12/05 00:36:19;;;;;;;36.28;19.25;;;;;;;8.04;79.97;101769.37;1767356;80;27371;-56
2020/12/05 00:38:47;;;;;;;34.38;15.90;;;;;;;8.02;80.11;101766.80;1765545;79;25600;-57
2020/12/05 00:41:19;;;;;;;32.85;17.23;;;;;;;7.98;80.09;101770.61;1764553;80;25955;-56
2020/12/05 00:43:47;;;;;;;41.30;18.48;;;;;;;7.98;79.94;101774.63;1755402;81;25770;-56
2020/12/05 00:46:16;;;;;;;41.73;18.48;;;;;;;7.94;80.02;101771.74;1757641;80;25589;-56
2020/12/05 00:48:44;;;;;;;34.90;16.45;;;;;;;7.91;80.17;101768.78;1769050;80;27508;-56
2020/12/05 00:51:12;;;;;;;27.60;15.18;;;;;;;7.91;80.21;101763.42;1777763;80;25654;-57
2020/12/05 00:53:42;;;;;;;38.00;17.12;;;;;;;7.90;80.06;101773.75;1777673;80;25744;-57
2020/12/05 00:56:13;;;;;;;29.80;16.17;;;;;;;7.88;80.08;101775.69;1777780;80;26940;-57
2020/12/05 00:58:41;;;;;;;35.65;15.60;;;;;;;7.89;80.10;101789.44;1777808;80;25658;-56
2020/12/05 01:01:09;;;;;;;33.80;15.48;;;;;;;7.88;80.07;101790.42;1777706;80;26783;-56
2020/12/05 01:03:37;;;;;;;30.10;16.23;;;;;;;7.90;80.16;101795.19;1777737;80;26083;-57
2020/12/05 01:06:11;;;;;;;30.97;15.35;;;;;;;7.92;80.08;101790.61;1777535;80;25599;-55
2020/12/05 01:08:44;;;;;;;31.12;16.10;;;;;;;7.95;79.96;101794.91;1777476;80;25769;-56
2020/12/05 01:11:16;;;;;;;35.70;18.02;;;;;;;7.96;79.74;101797.97;1777728;80;26078;-57
2020/12/05 01:13:45;;;;;;;30.32;14.23;;;;;;;7.95;79.66;101805.16;1777757;80;27516;-56
2020/12/05 01:16:16;;;;;;;26.90;15.98;;;;;;;7.96;79.74;101793.95;1777503;80;26085;-56
2020/12/05 01:18:45;;;;;;;33.55;15.83;;;;;;;7.95;79.61;101796.25;1777778;80;25483;-57
2020/12/05 01:21:17;;;;;;;34.73;15.35;;;;;;;7.95;79.59;101798.47;1777584;80;25714;-56
2020/12/05 01:23:46;;;;;;;31.55;16.17;;;;;;;7.97;79.41;101805.06;1779118;79;26098;-57
2020/12/05 01:26:14;;;;;;;31.62;16.27;;;;;;;7.94;79.43;101806.11;1790030;79;27529;-57
2020/12/05 01:28:42;;;;;;;33.10;16.30;;;;;;;7.96;79.44;101798.85;1763129;80;25655;-56
2020/12/05 01:31:11;;;;;;;30.85;15.72;;;;;;;7.97;79.30;101801.04;1766376;80;25509;-57
2020/12/05 01:33:39;;;;;;;33.92;16.73;;;;;;;7.96;79.27;101800.19;1768821;80;26567;-57
2020/12/05 01:36:07;;;;;;;38.28;16.20;;;;;;;7.96;79.16;101797.52;1769349;80;25955;-56
2020/12/05 01:38:35;;;;;;;31.77;14.87;;;;;;;7.99;79.19;101797.80;1769087;80;27521;-57
2020/12/05 01:41:05;;;;;;;31.37;16.10;;;;;;;8.01;79.01;101807.07;1765706;80;25525;-57
2020/12/05 01:43:33;;;;;;;30.37;14.55;;;;;;;7.99;78.86;101805.34;1770537;80;25731;-57
2020/12/05 01:46:05;;;;;;;28.62;14.33;;;;;;;8.01;78.82;101803.93;1770187;80;26794;-57
2020/12/05 01:48:34;;;;;;;26.80;14.18;;;;;;;7.99;78.63;101793.28;1773636;80;26223;-57
2020/12/05 01:51:02;;;;;;;31.00;14.80;;;;;;;7.97;78.46;101795.22;1772703;80;27525;-56
2020/12/05 01:53:30;;;;;;;27.58;15.23;;;;;;;7.91;78.49;101796.91;1772744;80;25648;-57
2020/12/05 01:55:58;;;;;;;30.35;14.20;;;;;;;7.90;78.62;101787.15;1772006;80;25761;-55
2020/12/05 01:58:27;;;;;;;28.27;15.83;;;;;;;7.88;78.35;101793.56;1737505;80;25579;-56
2020/12/05 02:00:55;;;;;;;25.40;14.58;;;;;;;7.88;78.53;101790.88;1744050;80;26026;-56
2020/12/05 02:03:23;;;;;;;30.17;14.40;;;;;;;7.88;78.66;101791.77;1737881;80;28378;-56
2020/12/05 02:06:36;;;;;;;30.68;14.25;;;;;;;7.91;78.49;101794.73;1750831;80;25573;-57
2020/12/05 02:09:31;;;;;;;30.97;14.68;;;;;;;7.90;78.42;101800.55;1760118;80;26319;-57
2020/12/05 02:12:20;;;;;;;;;;;;;;;7.92;78.54;101812.53;1752471;80;26564;-57
2020/12/05 02:14:52;;;;;;;34.65;14.78;;;;;;;7.91;78.64;101812.98;1744945;80;26137;-57
2020/12/05 02:17:22;;;;;;;32.83;15.63;;;;;;;7.91;78.06;101810.31;1762288;80;28412;-57
2020/12/05 02:19:52;;;;;;;33.75;17.20;;;;;;;7.93;77.93;101811.58;1745532;80;25929;-57
2020/12/05 02:22:29;;;;;;;38.38;16.48;;;;;;;7.91;78.05;101814.33;1735564;80;26387;-57
2020/12/05 02:24:59;;;;;;;36.70;18.55;;;;;;;7.91;77.88;101814.82;1787557;79;25903;-57
2020/12/05 02:27:31;;;;;;;35.68;16.70;;;;;;;7.87;77.48;101811.47;1786389;79;25597;-56
2020/12/05 02:29:59;;;;;;;31.48;16.60;;;;;;;7.80;77.49;101815.45;1771773;79;27517;-57
2020/12/05 02:32:27;;;;;;;35.08;15.98;;;;;;;7.76;77.20;101813.92;1762250;80;26064;-56
2020/12/05 02:34:57;;;;;;;29.92;14.85;;;;;;;7.68;77.28;101811.70;1772447;79;25625;-57
2020/12/05 02:37:28;;;;;;;31.93;14.87;;;;;;;7.66;77.39;101818.49;1801803;79;26437;-57
2020/12/05 02:39:57;;;;;;;35.68;15.20;;;;;;;7.65;77.52;101815.92;1789725;79;26044;-57
2020/12/05 02:42:25;;;;;;;33.00;14.23;;;;;;;7.62;77.33;101812.92;1792758;79;28469;-56
2020/12/05 02:44:54;;;;;;;32.67;14.60;;;;;;;7.63;77.54;101813.80;1801676;78;25628;-56
2020/12/05 02:47:22;;;;;;;27.00;13.62;;;;;;;7.64;77.64;101817.71;1772616;79;25602;-58
2020/12/05 02:49:50;;;;;;;24.67;13.78;;;;;;;7.65;77.59;101803.86;1777816;80;25706;-57
2020/12/05 02:52:18;;;;;;;25.68;13.15;;;;;;;7.66;77.49;101805.59;1777926;80;25706;-56
2020/12/05 02:54:46;;;;;;;25.17;13.43;;;;;;;7.64;77.28;101801.65;1775901;80;27602;-57
2020/12/05 02:57:13;;;;;;;23.05;11.88;;;;;;;7.63;77.06;101805.27;1777788;80;26119;-56
2020/12/05 02:59:41;;;;;;;24.85;13.00;;;;;;;7.62;77.17;101803.55;1777854;80;25461;-56
2020/12/05 03:02:09;;;;;;;22.75;12.68;;;;;;;7.62;76.86;101805.38;1777826;80;25588;-56
2020/12/05 03:04:37;;;;;;;23.15;11.43;;;;;;;7.61;77.11;101807.66;1777887;80;25649;-56
2020/12/05 03:07:05;;;;;;;32.88;13.93;;;;;;;7.61;76.87;101818.38;1776142;80;28889;-56
2020/12/05 03:09:34;;;;;;;22.82;12.25;;;;;;;7.59;77.10;101805.55;1777660;80;25790;-56
2020/12/05 03:12:03;;;;;;;26.02;12.45;;;;;;;7.64;77.11;101811.02;1777499;79;25636;-57
2020/12/05 03:14:31;;;;;;;26.50;12.30;;;;;;;7.67;77.03;101808.62;1777823;80;25678;-56
2020/12/05 03:16:59;;;;;;;27.22;11.68;;;;;;;7.67;76.54;101800.14;1777730;80;26082;-56
2020/12/05 03:19:27;;;;;;;25.35;12.15;;;;;;;7.65;76.37;101795.83;1777895;80;28567;-57
2020/12/05 03:21:55;;;;;;;23.92;11.50;;;;;;;7.60;76.16;101794.77;1791945;79;26056;-56
2020/12/05 03:24:23;;;;;;;26.45;12.55;;;;;;;7.58;76.11;101798.00;1807980;79;25673;-56
2020/12/05 03:26:51;;;;;;;26.68;9.95;;;;;;;7.57;76.46;101804.31;1777905;80;25639;-56
2020/12/05 03:29:19;;;;;;;25.55;12.00;;;;;;;7.62;76.13;101815.59;1758506;79;25697;-56
2020/12/05 03:34:18;;;;;;;24.10;11.38;;;;;;;7.63;76.18;101815.98;1733364;81;25701;-56
2020/12/05 03:36:46;;;;;;;22.55;11.40;;;;;;;7.63;75.78;101810.63;1733571;82;25921;-56
2020/12/05 03:39:14;;;;;;;28.65;12.90;;;;;;;7.62;75.42;101808.05;1732983;82;25562;-56
2020/12/05 03:41:43;;;;;;;22.55;11.78;;;;;;;7.56;75.82;101813.30;1725287;80;26119;-57
2020/12/05 03:44:11;;;;;;;29.95;12.60;;;;;;;7.54;75.87;101811.17;1735126;81;28281;-58
2020/12/05 03:46:39;;;;;;;25.45;12.00;;;;;;;7.52;75.65;101813.95;1706074;81;25753;-58
2020/12/05 03:49:06;;;;;;;23.60;12.80;;;;;;;7.49;75.14;101807.44;1772323;80;25931;-57
2020/12/05 03:51:34;;;;;;;24.85;13.30;;;;;;;7.44;75.43;101810.02;1777519;80;25559;-57
2020/12/05 03:54:02;;;;;;;24.70;13.10;;;;;;;7.36;75.56;101807.78;1777796;80;25695;-57
2020/12/05 03:56:30;;;;;;;28.00;11.12;;;;;;;7.27;75.41;101804.30;1776138;79;27541;-57
2020/12/05 03:58:58;;;;;;;23.92;11.95;;;;;;;7.21;75.62;101806.86;1772201;79;25644;-57
2020/12/05 04:01:26;;;;;;;30.95;12.82;;;;;;;7.19;75.88;101817.66;1773504;79;25630;-57
2020/12/05 04:03:54;;;;;;;29.05;12.37;;;;;;;7.20;75.97;101822.06;1770979;79;25434;-57
2020/12/05 04:06:22;;;;;;;24.65;12.33;;;;;;;7.21;76.04;101817.56;1771875;80;26117;-57
2020/12/05 04:08:50;;;;;;;22.42;11.22;;;;;;;7.23;76.13;101831.72;1773037;79;27776;-57
2020/12/05 04:11:18;;;;;;;23.80;11.50;;;;;;;7.26;76.14;101828.84;1769877;81;25708;-57
2020/12/05 04:13:46;;;;;;;24.43;12.07;;;;;;;7.27;75.86;101832.41;1772319;79;25499;-57
2020/12/05 04:16:13;;;;;;;25.97;11.90;;;;;;;7.28;75.91;101842.16;1771531;80;25703;-57
2020/12/05 04:18:42;;;;;;;22.50;11.70;;;;;;;7.27;75.75;101853.82;1770862;79;25719;-57
2020/12/05 04:21:10;;;;;;;26.77;12.40;;;;;;;7.28;75.72;101857.73;1787058;79;27584;-57
2020/12/05 04:23:38;;;;;;;25.70;11.63;;;;;;;7.28;75.70;101853.72;1785074;79;25629;-57
2020/12/05 04:26:06;;;;;;;26.10;12.15;;;;;;;7.27;75.47;101862.70;1796592;79;25619;-57
2020/12/05 04:28:34;;;;;;;25.40;12.10;;;;;;;7.24;75.43;101862.89;1790086;79;25539;-57
2020/12/05 04:31:03;;;;;;;24.02;12.13;;;;;;;7.19;75.41;101878.33;1773930;79;26002;-57
2020/12/05 04:33:31;;;;;;;27.80;12.78;;;;;;;7.17;75.61;101882.44;1774398;79;27630;-57
2020/12/05 04:35:59;;;;;;;19.35;10.65;;;;;;;7.14;75.59;101882.61;1766417;79;26599;-56
2020/12/05 04:38:27;;;;;;;19.85;10.65;;;;;;;7.06;75.56;101878.16;1769854;80;25686;-57
2020/12/05 04:40:59;;;;;;;18.30;10.03;;;;;;;7.05;75.60;101879.11;1770199;80;26209;-57
2020/12/05 04:43:27;;;;;;;23.57;11.80;;;;;;;6.98;75.59;101885.30;1768432;80;25577;-57
2020/12/05 04:45:56;;;;;;;23.10;10.93;;;;;;;6.93;75.71;101880.66;1772051;79;27515;-56
2020/12/05 04:48:26;;;;;;;20.23;10.72;;;;;;;6.91;75.64;101887.05;1768007;79;25695;-56
2020/12/05 04:50:57;;;;;;;33.13;12.93;;;;;;;6.84;75.77;101888.73;1783481;79;25529;-57
2020/12/05 04:53:27;;;;;;;21.60;11.30;;;;;;;6.74;76.13;101885.69;1778540;79;25757;-57
2020/12/05 04:55:59;;;;;;;29.80;12.75;;;;;;;6.70;76.26;101893.95;1788397;79;25922;-56
2020/12/05 04:58:28;;;;;;;22.13;10.95;;;;;;;6.66;76.49;101893.27;1734990;81;28464;-57
2020/12/05 05:00:58;;;;;;;22.42;11.80;;;;;;;6.60;76.58;101894.95;1772924;79;26086;-57
2020/12/05 05:03:28;;;;;;;24.32;11.08;;;;;;;6.56;76.71;101899.59;1788728;79;25753;-56
2020/12/05 05:05:58;;;;;;;26.55;11.25;;;;;;;6.54;76.82;101900.14;1785756;79;26453;-57
2020/12/05 05:08:27;;;;;;;23.18;11.68;;;;;;;6.51;76.94;101892.27;1778883;79;26271;-56
2020/12/05 05:11:10;;;;;;;18.82;11.18;;;;;;;6.48;76.93;101895.13;1736497;81;28493;-56
2020/12/05 05:14:02;;;;;;;18.75;11.03;;;;;;;6.44;77.03;101898.05;1704126;83;43692;-56
2020/12/05 05:16:29;;;;;;;21.12;11.10;;;;;;;6.39;77.04;101905.83;1722082;82;25692;-56
2020/12/05 05:19:04;;;;;;;20.12;11.22;;;;;;;6.39;77.22;101907.66;1725203;81;26438;-56
2020/12/05 05:21:41;;;;;;;17.50;9.40;;;;;;;6.34;77.40;101918.58;1725926;80;26206;-56
2020/12/05 05:24:18;;;;;;;28.30;11.48;;;;;;;6.30;77.45;101926.84;1752800;81;27569;-56
2020/12/05 05:27:07;;;;;;;20.50;9.78;;;;;;;6.33;77.41;101921.31;1764067;80;25912;-57
2020/12/05 05:29:43;;;;;;;17.32;9.50;;;;;;;6.28;77.46;101924.71;1745262;80;25481;-57
2020/12/05 05:32:25;;;;;;;15.25;8.55;;;;;;;6.28;77.53;101926.90;1709134;83;25990;-56
2020/12/05 05:35:10;;;;;;;25.72;8.70;;;;;;;6.24;77.39;101930.20;1729820;82;25708;-57
2020/12/05 05:37:37;;;;;;;20.17;9.93;;;;;;;6.25;77.33;101935.95;1729796;82;27479;-58
2020/12/05 05:40:06;;;;;;;24.92;9.83;;;;;;;6.20;77.26;101931.33;1729754;82;25688;-57
2020/12/05 05:42:42;;;;;;;17.32;9.55;;;;;;;6.18;77.25;101928.34;1729769;82;25695;-58
2020/12/05 05:45:28;;;;;;;19.32;9.78;;;;;;;6.12;77.34;101942.88;1729701;82;26481;-57
2020/12/05 05:48:04;;;;;;;24.70;9.20;;;;;;;6.09;77.47;101936.34;1738504;82;25470;-56
2020/12/05 05:50:35;;;;;;;19.02;9.25;;;;;;;6.07;77.57;101941.78;1806088;79;28556;-58
2020/12/05 05:53:08;;;;;;;18.62;9.05;;;;;;;6.05;77.50;101942.32;1809575;79;25756;-58
2020/12/05 05:55:48;;;;;;;18.40;8.48;;;;;;;6.03;77.47;101936.67;1809903;79;25581;-58
2020/12/05 05:58:20;;;;;;;22.73;9.68;;;;;;;6.00;77.54;101940.37;1740388;82;26317;-58
2020/12/05 06:00:53;;;;;;;20.37;9.65;;;;;;;6.00;77.54;101943.04;1770864;81;25429;-57
2020/12/05 06:03:26;;;;;;;24.18;11.45;;;;;;;5.97;77.29;101941.81;1740044;82;28501;-58
2020/12/05 06:05:58;;;;;;;15.65;7.17;;;;;;;5.89;77.38;101939.52;1798659;79;26354;-57
2020/12/05 06:08:29;;;;;;;20.00;9.25;;;;;;;5.86;77.42;101942.81;1792738;79;25712;-58
2020/12/05 06:11:02;;;;;;;17.80;8.55;;;;;;;5.81;77.55;101944.38;1792310;78;26442;-57
2020/12/05 06:13:32;;;;;;;16.00;8.58;;;;;;;5.74;77.49;101942.48;1797265;79;25967;-58
2020/12/05 06:16:02;;;;;;;16.35;8.63;;;;;;;5.67;77.76;101947.73;1716449;82;27521;-57
2020/12/05 06:18:31;;;;;;;17.85;7.97;;;;;;;5.62;78.01;101954.63;1775945;79;25646;-57
2020/12/05 06:20:59;;;;;;;15.30;8.58;;;;;;;5.60;78.11;101958.32;1776940;79;25693;-57
2020/12/05 06:23:48;;;;;;;15.85;8.73;;;;;;;5.55;78.36;101959.03;1789958;79;25670;-57
2020/12/05 06:26:29;;;;;;;11.75;7.10;;;;;;;5.51;78.43;101961.44;1789890;79;25721;-57
2020/12/05 06:29:02;;;;;;;16.52;9.43;;;;;;;5.49;78.51;101969.05;1753473;80;27965;-57
2020/12/05 06:31:45;;;;;;;16.67;7.90;;;;;;;5.48;78.60;101967.80;1765658;80;25803;-57
2020/12/05 06:34:42;;;;;;;12.63;7.10;;;;;;;5.46;78.67;101975.00;1763099;80;25268;-57
2020/12/05 06:37:14;;;;;;;13.35;8.43;;;;;;;5.44;78.71;101975.08;1766686;80;25617;-57
2020/12/05 06:39:42;;;;;;;14.03;7.25;;;;;;;5.44;78.69;101966.19;1774551;80;26334;-56
2020/12/05 06:42:20;;;;;;;12.75;6.78;;;;;;;5.43;78.64;101980.47;1773652;80;28281;-56
2020/12/05 06:44:48;;;;;;;16.65;7.12;;;;;;;5.45;78.49;101977.27;1769387;80;25738;-57
2020/12/05 06:47:24;;;;;;;12.28;7.12;;;;;;;5.42;78.40;101980.95;1796208;79;25737;-57
2020/12/05 06:49:53;;;;;;;14.33;7.83;;;;;;;5.42;78.20;101978.28;1796483;79;26488;-56
2020/12/05 06:52:31;;;;;;;16.12;7.22;;;;;;;5.42;78.25;101983.63;1797388;79;25712;-56
2020/12/05 06:55:12;;;;;;;16.48;6.80;;;;;;;5.42;78.22;101984.95;1801865;79;27518;-56
2020/12/05 06:57:42;;;;;;;13.05;6.50;;;;;;;5.45;78.26;101987.94;1801688;79;25723;-56
2020/12/05 07:00:25;;;;;;;11.08;6.00;;;;;;;5.48;78.08;101994.00;1794997;79;25485;-57
2020/12/05 07:03:03;;;;;;;10.65;5.85;;;;;;;5.46;77.98;101987.01;1799615;79;25700;-57
2020/12/05 07:05:42;;;;;;;11.12;6.42;;;;;;;5.47;77.81;101998.09;1767597;79;25674;-57
2020/12/05 07:08:37;;;;;;;12.25;6.40;;;;;;;5.49;77.64;102001.55;1763420;80;27594;-57
2020/12/05 07:11:13;;;;;;;12.75;6.45;;;;;;;5.48;77.51;102001.16;1762067;80;26150;-57
2020/12/05 07:13:48;;;;;;;12.35;6.33;;;;;;;5.49;77.42;102012.23;1759353;80;25880;-57
2020/12/05 07:16:28;;;;;;;12.75;6.22;;;;;;;5.48;77.27;102007.34;1776999;79;26431;-56
2020/12/05 07:19:01;;;;;;;10.28;6.35;;;;;;;5.49;77.11;102013.56;1799976;79;26232;-57
2020/12/05 07:21:30;;;;;;;15.20;6.03;;;;;;;5.48;77.01;102009.16;1797829;79;27522;-57
2020/12/05 07:23:59;;;;;;;15.43;6.20;;;;;;;5.49;76.87;102020.23;1801637;79;25744;-57
2020/12/05 07:26:27;;;;;;;10.32;6.28;;;;;;;5.52;76.75;102022.74;1796855;79;25658;-56
2020/12/05 07:28:56;;;;;;;11.95;6.17;;;;;;;5.59;76.93;102034.00;1788813;79;26483;-57
2020/12/05 07:31:26;;;;;;;11.50;5.90;;;;;;;5.67;76.23;102038.50;1797802;79;26601;-56
2020/12/05 07:33:55;;;;;;;9.98;5.55;;;;;;;5.72;76.07;102043.63;1788395;79;27522;-56
2020/12/05 07:36:23;;;;;;;10.30;6.45;;;;;;;5.72;75.77;102042.29;1789421;79;26082;-56
2020/12/05 07:38:52;;;;;;;11.33;5.67;;;;;;;5.80;75.52;102045.00;1790101;79;25663;-57
2020/12/05 07:41:21;;;;;;;11.50;6.53;;;;;;;5.83;75.53;102043.98;1797744;79;25604;-57
2020/12/05 07:43:56;;;;;;;10.82;5.87;;;;;;;5.88;75.03;102045.95;1797530;79;25685;-56
2020/12/05 07:46:24;;;;;;;11.73;6.20;;;;;;;5.87;74.87;102043.36;1778210;79;27527;-57
2020/12/05 07:48:53;;;;;;;14.93;7.25;;;;;;;5.89;74.69;102050.36;1766733;80;25917;-57
2020/12/05 07:51:21;;;;;;;13.50;6.33;;;;;;;5.88;74.16;102050.44;1779116;79;25491;-57
2020/12/05 07:53:49;;;;;;;10.20;6.15;;;;;;;5.83;74.45;102049.33;1778777;79;25536;-57
2020/12/05 07:56:19;;;;;;;10.78;6.08;;;;;;;5.85;74.49;102051.91;1804990;79;26148;-57
2020/12/05 07:58:56;;;;;;;12.43;5.80;;;;;;;5.85;74.11;102056.80;1734562;81;27567;-57
2020/12/05 08:01:59;;;;;;;15.13;6.67;;;;;;;5.89;74.16;102062.86;1724226;81;25793;-57
2020/12/05 08:04:54;;;;;;;13.18;6.08;;;;;;;5.89;74.23;102065.05;1713962;82;25853;-57
2020/12/05 08:07:39;;;;;;;14.63;5.87;;;;;;;5.84;73.76;102068.42;1703922;83;25660;-56
2020/12/05 08:10:12;;;;;;;10.72;6.53;;;;;;;5.84;74.38;102071.09;1715003;82;25676;-57
2020/12/05 08:13:07;;;;;;;12.55;5.92;;;;;;;5.80;74.36;102078.84;1717541;82;28273;-57
2020/12/05 08:15:36;;;;;;;10.00;5.80;;;;;;;5.88;74.30;102079.33;1715576;82;26101;-57
2020/12/05 08:18:05;;;;;;;10.00;5.10;;;;;;;5.90;73.80;102084.14;1702749;83;25720;-57
2020/12/05 08:20:33;;;;;;;11.85;5.70;;;;;;;5.83;73.75;102080.04;1762583;80;26397;-58
2020/12/05 08:23:01;;;;;;;11.03;6.33;;;;;;;5.84;74.13;102087.56;1750805;80;25514;-57
2020/12/05 08:25:30;;;;;;;12.03;6.22;;;;;;;5.86;73.66;102095.05;1761247;81;27533;-57
2020/12/05 08:27:58;;;;;;;17.40;5.47;;;;;;;5.90;73.75;102085.96;1758739;79;25707;-59
2020/12/05 08:30:28;;;;;;;12.63;6.53;;;;;;;5.96;73.53;102094.52;1770106;80;25685;-56
2020/12/05 08:33:03;;;;;;;13.25;6.50;;;;;;;5.99;73.51;102080.63;1769310;80;26589;-56
2020/12/05 08:35:33;;;;;;;12.55;6.12;;;;;;;6.04;73.22;102083.51;1771984;80;26257;-56
2020/12/05 08:38:02;;;;;;;11.00;6.42;;;;;;;6.10;72.95;102085.02;1770078;80;27600;-55
2020/12/05 08:40:31;;;;;;;12.85;7.20;;;;;;;6.13;72.88;102085.34;1766924;80;25733;-55
2020/12/05 08:43:00;;;;;;;12.47;7.03;;;;;;;6.14;72.54;102089.74;1771344;80;25498;-55
2020/12/05 08:45:28;;;;;;;15.63;7.47;;;;;;;6.13;72.40;102086.67;1769041;80;25724;-56
2020/12/05 08:47:56;;;;;;;14.63;7.10;;;;;;;6.03;72.38;102086.27;1771318;80;25439;-56
2020/12/05 08:50:34;;;;;;;13.38;6.45;;;;;;;5.99;72.70;102081.97;1794656;79;27524;-56
2020/12/05 08:53:03;;;;;;;14.28;7.40;;;;;;;5.93;72.62;102089.80;1804784;79;25423;-58
2020/12/05 08:55:32;;;;;;;14.63;7.67;;;;;;;5.89;72.91;102089.08;1800772;79;25528;-57
2020/12/05 08:58:04;;;;;;;16.10;6.95;;;;;;;5.87;73.24;102089.62;1794528;78;25704;-57
2020/12/05 09:00:35;;;;;;;12.53;6.55;;;;;;;5.87;73.61;102086.95;1783167;79;26163;-57
2020/12/05 09:03:03;;;;;;;13.25;6.47;;;;;;;5.84;73.42;102092.91;1792899;79;27566;-57
2020/12/05 09:05:31;;;;;;;9.65;6.17;;;;;;;5.76;73.64;102091.47;1786247;79;26082;-57
2020/12/05 09:08:01;;;;;;;12.58;6.85;;;;;;;5.79;73.63;102090.45;1774271;79;25494;-57
2020/12/05 09:10:30;;;;;;;14.53;7.45;;;;;;;5.73;73.69;102098.77;1767070;79;26409;-57
2020/12/05 09:13:06;;;;;;;16.57;7.50;;;;;;;5.78;73.89;102097.61;1781497;79;26197;-55
2020/12/05 09:15:35;;;;;;;13.62;7.00;;;;;;;5.83;73.69;102100.06;1796173;79;27530;-57
2020/12/05 09:18:03;;;;;;;13.25;5.85;;;;;;;5.84;73.67;102095.13;1785960;79;25926;-56
2020/12/05 09:20:33;;;;;;;15.32;7.40;;;;;;;5.85;73.46;102099.53;1778520;79;25765;-57
2020/12/05 09:23:01;;;;;;;14.00;6.87;;;;;;;5.83;73.37;102104.08;1777408;79;26418;-57
2020/12/05 09:25:33;;;;;;;10.43;5.62;;;;;;;5.86;73.57;102103.05;1728987;81;25726;-57
2020/12/05 09:28:10;;;;;;;15.93;5.58;;;;;;;5.89;73.46;102103.77;1779347;79;26837;-57
2020/12/05 09:30:39;;;;;;;20.15;6.05;;;;;;;5.87;73.18;102091.44;1734211;81;25811;-57
2020/12/05 09:33:15;;;;;;;10.58;6.22;;;;;;;5.89;72.56;102096.24;1773496;80;25657;-57
2020/12/05 09:35:45;;;;;;;12.73;6.47;;;;;;;5.93;72.41;102095.14;1768180;80;25596;-57
2020/12/05 09:38:13;;;;;;;12.10;7.12;;;;;;;5.91;72.58;102097.05;1788999;79;25647;-56
2020/12/05 09:40:42;;;;;;;12.40;6.33;;;;;;;6.04;72.44;102103.55;1707091;82;27535;-57
2020/12/05 09:43:10;;;;;;;16.75;6.08;;;;;;;6.32;72.38;102100.86;1729588;82;26086;-56
2020/12/05 09:45:39;;;;;;;13.48;6.83;;;;;;;6.58;71.37;102088.00;1722681;82;25987;-56
2020/12/05 09:48:08;;;;;;;14.73;5.95;;;;;;;6.77;71.16;102090.59;1730535;82;25996;-57
2020/12/05 09:50:36;;;;;;;18.45;5.67;;;;;;;6.92;70.19;102094.77;1787330;79;26699;-57
2020/12/05 09:53:04;;;;;;;9.58;5.55;;;;;;;6.96;70.56;102097.66;1754194;81;27548;-57
2020/12/05 09:55:31;;;;;;;14.78;6.05;;;;;;;7.09;70.60;102095.20;1784961;79;25619;-57
2020/12/05 09:57:59;;;;;;;10.98;5.83;;;;;;;7.32;68.25;102084.61;1755444;81;25689;-57
2020/12/05 10:00:27;;;;;;;14.68;6.08;;;;;;;7.60;67.80;102079.98;1733416;82;26430;-57
2020/12/05 10:02:55;;;;;;;14.03;6.67;;;;;;;7.93;67.01;102077.70;1739976;82;26101;-57
2020/12/05 10:05:24;;;;;;;11.63;6.42;;;;;;;8.04;66.43;102071.71;1733789;82;27712;-58
2020/12/05 10:07:52;;;;;;;13.50;7.58;;;;;;;8.66;64.76;102067.30;1729651;82;25670;-58
2020/12/05 10:10:21;;;;;;;14.38;6.78;;;;;;;9.20;63.91;102068.05;1743032;82;25443;-57
2020/12/05 10:12:49;;;;;;;14.63;6.20;;;;;;;9.87;62.29;102069.61;1731387;82;25728;-57
2020/12/05 10:15:17;;;;;;;13.08;6.00;;;;;;;10.32;61.07;102077.45;1718033;82;25676;-57
2020/12/05 10:17:45;;;;;;;15.78;5.75;;;;;;;10.43;61.47;102077.25;1792675;79;27528;-57
2020/12/05 10:20:12;;;;;;;12.50;6.70;;;;;;;10.86;60.00;102070.74;1772076;80;25493;-57
2020/12/05 10:22:40;;;;;;;12.18;5.12;;;;;;;11.08;58.84;102074.15;1782527;79;25524;-58
2020/12/05 10:25:08;;;;;;;8.03;5.05;;;;;;;10.76;58.79;102071.88;1724431;82;25842;-57
2020/12/05 10:27:38;;;;;;;13.08;5.58;;;;;;;10.47;58.48;102069.33;1740960;80;25670;-57
2020/12/05 10:30:09;;;;;;;14.47;6.65;;;;;;;9.99;57.24;102077.84;1683864;83;27467;-57
2020/12/05 10:32:35;;;;;;;11.25;6.42;;;;;;;9.54;58.46;102080.72;1702923;82;25775;-57
2020/12/05 10:35:04;;;;;;;15.35;6.72;;;;;;;9.08;59.49;102079.95;1689884;83;25744;-57
2020/12/05 10:37:32;;;;;;;12.80;5.70;;;;;;;8.66;60.49;102080.72;1708544;83;25711;-57
2020/12/05 10:39:59;;;;;;;13.80;6.50;;;;;;;8.34;61.43;102083.46;1777411;80;26122;-58
2020/12/05 10:42:27;;;;;;;13.83;6.55;;;;;;;8.20;62.24;102081.09;1768233;80;27955;-57
2020/12/05 10:44:55;;;;;;;12.88;6.42;;;;;;;8.33;62.18;102076.37;1769899;79;25639;-58
2020/12/05 10:47:23;;;;;;;15.78;6.55;;;;;;;8.30;62.58;102076.92;1787449;79;25627;-57
2020/12/05 10:49:52;;;;;;;11.28;6.42;;;;;;;8.17;62.83;102075.05;1796946;79;26601;-57
2020/12/05 10:52:20;;;;;;;16.17;6.53;;;;;;;8.17;62.86;102069.68;1789568;79;25603;-57
2020/12/05 10:54:48;;;;;;;13.60;6.35;;;;;;;7.93;63.51;102075.02;1774621;79;27534;-58
2020/12/05 10:57:16;;;;;;;13.88;5.55;;;;;;;7.74;63.62;102076.53;1787822;79;25694;-58
2020/12/05 10:59:44;;;;;;;9.73;6.45;;;;;;;7.62;63.62;102078.55;1775917;79;25642;-57
2020/12/05 11:02:12;;;;;;;19.85;6.97;;;;;;;7.39;64.26;102081.14;1783697;79;26506;-57
2020/12/05 11:04:39;;;;;;;14.18;7.20;;;;;;;7.18;65.03;102088.03;1765122;79;25662;-57
2020/12/05 11:07:07;;;;;;;18.73;6.03;;;;;;;6.94;65.46;102086.20;1775713;79;27531;-57
2020/12/05 11:09:35;;;;;;;13.10;6.40;;;;;;;6.70;66.13;102096.75;1779767;79;25664;-57
2020/12/05 11:12:03;;;;;;;9.88;5.87;;;;;;;6.62;66.54;102090.05;1759895;79;25621;-58
2020/12/05 11:14:31;;;;;;;14.38;5.83;;;;;;;6.68;66.61;102085.74;1767143;79;25763;-58
2020/12/05 11:16:59;;;;;;;12.10;6.12;;;;;;;6.64;66.64;102093.52;1775065;78;25771;-57
2020/12/05 11:19:27;;;;;;;10.13;5.97;;;;;;;6.50;67.29;102096.39;1754300;79;28616;-57
2020/12/05 11:21:55;;;;;;;10.55;5.90;;;;;;;6.36;67.64;102097.11;1775493;79;26087;-57
2020/12/05 11:24:23;;;;;;;17.52;6.53;;;;;;;6.28;68.26;102086.39;1788834;79;25591;-57
2020/12/05 11:26:54;;;;;;;11.33;6.60;;;;;;;6.23;68.49;102082.61;1780572;79;25704;-58
2020/12/05 11:29:22;;;;;;;10.85;5.75;;;;;;;6.19;68.79;102081.02;1790005;79;26159;-57
2020/12/05 11:31:50;;;;;;;18.75;6.28;;;;;;;6.16;68.89;102090.05;1776050;80;27533;-58
2020/12/05 11:34:18;;;;;;;12.47;6.05;;;;;;;6.17;68.90;102095.80;1775891;80;25674;-58
2020/12/05 11:36:48;;;;;;;10.75;6.65;;;;;;;6.26;68.75;102084.66;1771816;80;25745;-57
2020/12/05 11:39:16;;;;;;;11.68;5.90;;;;;;;6.36;68.62;102078.41;1764062;80;25866;-57
2020/12/05 11:41:44;;;;;;;9.73;5.42;;;;;;;6.44;68.26;102075.81;1775970;80;26256;-57